Terminal Aerodrome Forecast
Issued by NWS

Home | Current Version | Previous Version | Text Only | Print | Product List | Glossary On
Versions: 1 2 3 4 5 6 7 8 9 10 11 12 13 14 15 16 17
296
FTUS42 KJAX 031120
TAFCRG
TAF
KCRG 031120Z 0312/0412 01006KT P6SM FEW150 SCT250
     FM031400 03011KT P6SM SCT150 SCT250
     FM031700 04012G20KT P6SM SCT035 BKN150
     FM032300 05010KT P6SM SCT030 BKN120=

USA.gov is the U.S. government's official web portal to all federal, state and local government web resources and services.